createdAt,value
2022-07-28T00:00:54.837Z,14.7
2022-07-28T00:02:04.967Z,14.1
2022-07-28T00:03:15.072Z,14.3
2022-07-28T00:04:24.476Z,14.9
2022-07-28T00:05:34.329Z,14.6
2022-07-28T00:06:44.705Z,14.1
2022-07-28T00:07:54.559Z,14.9
2022-07-28T00:09:04.685Z,14.2
2022-07-28T00:10:14.791Z,14.3
2022-07-28T00:11:24.922Z,14.7
2022-07-28T00:12:35.036Z,14.7
2022-07-28T00:13:45.156Z,14.7
2022-07-28T00:14:55.266Z,14.7
2022-07-28T00:16:05.379Z,14.1
2022-07-28T00:18:25.631Z,14.7
2022-07-28T00:19:34.765Z,14.3
2022-07-28T00:20:44.870Z,14
2022-07-28T00:21:54.999Z,13.9
2022-07-28T00:23:05.111Z,14.3
2022-07-28T00:24:15.236Z,14.4
2022-07-28T00:25:25.338Z,14.7
2022-07-28T00:26:35.463Z,14.1
2022-07-28T00:27:45.581Z,14.9
2022-07-28T00:28:55.691Z,14.1
2022-07-28T00:30:05.816Z,14
2022-07-28T00:31:15.923Z,14
2022-07-28T00:32:26.040Z,14.3
2022-07-28T00:33:36.165Z,14
2022-07-28T00:34:45.303Z,14.8
2022-07-28T00:35:55.424Z,13.9
2022-07-28T00:37:05.530Z,14.7
2022-07-28T00:38:15.658Z,14.8
2022-07-28T00:39:25.763Z,14.8
2022-07-28T00:40:35.886Z,13.8
2022-07-28T00:41:46.011Z,14.7
2022-07-28T00:42:56.126Z,14.8
2022-07-28T00:44:06.248Z,14.1
2022-07-28T00:45:16.367Z,14.2
2022-07-28T00:46:26.471Z,14.2
2022-07-28T00:47:36.594Z,13.8
2022-07-28T00:48:46.717Z,14.6
2022-07-28T00:49:56.105Z,14.1
2022-07-28T00:51:06.254Z,14.8
2022-07-28T00:52:16.081Z,14.3
2022-07-28T00:53:26.207Z,14.1
2022-07-28T00:54:36.307Z,14.2
2022-07-28T00:55:46.431Z,14.1
2022-07-28T00:56:56.543Z,14.4
2022-07-28T00:58:06.926Z,14.3
2022-07-28T00:59:16.777Z,14
2022-07-28T01:00:26.905Z,14.9
2022-07-28T01:01:37.029Z,14.9
2022-07-28T01:02:47.133Z,14.1
2022-07-28T01:03:57.255Z,13.5
2022-07-28T01:05:06.386Z,14.8
2022-07-28T01:06:16.507Z,14.2
2022-07-28T01:07:26.634Z,14
2022-07-28T01:08:36.750Z,14
2022-07-28T01:09:46.855Z,14.8
2022-07-28T01:10:56.980Z,13.7
2022-07-28T01:12:07.092Z,14
2022-07-28T01:13:17.219Z,14.1
2022-07-28T01:14:27.327Z,14.3
2022-07-28T01:15:37.451Z,14.3
2022-07-28T01:16:47.556Z,14.2
2022-07-28T01:17:57.688Z,14.2
2022-07-28T01:19:07.793Z,14
2022-07-28T01:20:16.929Z,13.9
2022-07-28T01:21:27.051Z,14.1
2022-07-28T01:22:37.175Z,14.2
2022-07-28T01:23:47.296Z,14.4
2022-07-28T01:24:57.403Z,14.4
2022-07-28T01:26:07.525Z,14.2
2022-07-28T01:27:17.632Z,13.5
2022-07-28T01:28:27.754Z,14.7
2022-07-28T01:29:37.878Z,14.2
2022-07-28T01:30:48.288Z,13.5
2022-07-28T01:31:58.405Z,14.3
2022-07-28T01:35:28.721Z,14.1
2022-07-28T01:36:37.891Z,14
2022-07-28T01:38:58.233Z,13.6
2022-07-28T01:40:07.236Z,13.5
2022-07-28T01:42:26.482Z,14.1
2022-07-28T01:43:36.609Z,13.6
2022-07-28T01:44:46.728Z,14.2
2022-07-28T01:45:56.837Z,14.4
2022-07-28T01:47:06.962Z,13.5
2022-07-28T01:49:27.195Z,14.3
2022-07-28T01:50:37.313Z,13.5
2022-07-28T01:51:47.422Z,14.1
2022-07-28T01:52:57.541Z,13.5
2022-07-28T01:54:07.660Z,14.3
2022-07-28T01:56:27.893Z,13.7
2022-07-28T01:58:47.225Z,13.7
2022-07-28T01:59:56.334Z,14.1
2022-07-28T02:01:05.436Z,13.9
2022-07-28T02:03:25.674Z,13.7
2022-07-28T02:04:35.793Z,14.2
2022-07-28T02:05:45.907Z,13.5
2022-07-28T02:06:56.036Z,13.9
2022-07-28T02:08:06.138Z,14.3
2022-07-28T02:10:26.390Z,13.5
2022-07-28T02:11:36.490Z,14.2
2022-07-28T02:13:56.725Z,14.2
2022-07-28T02:15:06.854Z,13.5
2022-07-28T02:17:26.121Z,14.2
2022-07-28T02:18:35.958Z,14.3
2022-07-28T02:19:46.078Z,14.1
2022-07-28T02:20:56.180Z,14.3
2022-07-28T02:22:06.305Z,13.6
2022-07-28T02:23:16.423Z,13.8
2022-07-28T02:24:26.543Z,14
2022-07-28T02:25:36.668Z,13.5
2022-07-28T02:26:46.776Z,13.6
2022-07-28T02:27:56.884Z,13.7
2022-07-28T02:29:07.008Z,14.2
2022-07-28T02:30:17.127Z,14.1
2022-07-28T02:31:26.261Z,13.6
2022-07-28T02:32:36.384Z,13.6
2022-07-28T02:33:46.504Z,13.8
2022-07-28T02:34:56.619Z,14.1
2022-07-28T02:36:06.741Z,13.5
2022-07-28T02:37:16.855Z,14.1
2022-07-28T02:38:25.995Z,13.8
2022-07-28T02:39:35.129Z,13.7
2022-07-28T02:40:45.250Z,13.8
2022-07-28T02:41:55.370Z,14.4
2022-07-28T02:43:04.508Z,13.8
2022-07-28T02:44:14.614Z,13.7
2022-07-28T02:45:24.731Z,13.6
2022-07-28T02:46:34.859Z,14.1
2022-07-28T02:47:44.977Z,13.7
2022-07-28T02:48:55.095Z,14.1
2022-07-28T02:50:05.201Z,14
2022-07-28T02:51:14.356Z,14.1
2022-07-28T02:52:23.476Z,14.1
2022-07-28T02:53:33.597Z,13.4
2022-07-28T02:54:43.719Z,13.8
2022-07-28T02:55:53.841Z,14.2
2022-07-28T02:57:03.953Z,14.1
2022-07-28T02:58:14.085Z,13.9
2022-07-28T02:59:24.185Z,14
2022-07-28T03:00:34.308Z,14.1
2022-07-28T03:01:44.418Z,14.2
2022-07-28T03:02:54.542Z,14.2
2022-07-28T03:04:04.670Z,13.7
2022-07-28T03:05:14.776Z,14.1
2022-07-28T03:06:24.907Z,14
2022-07-28T03:07:34.025Z,14.2
2022-07-28T03:08:44.148Z,13.5
2022-07-28T03:09:54.273Z,14.1
2022-07-28T03:11:04.375Z,13.5
2022-07-28T03:13:24.622Z,14.1
2022-07-28T03:14:34.735Z,13.8
2022-07-28T03:15:44.859Z,14.2
2022-07-28T03:16:54.976Z,14.3
2022-07-28T03:18:05.085Z,14.1
2022-07-28T03:19:15.210Z,14
2022-07-28T03:20:25.334Z,13.5
2022-07-28T03:21:35.442Z,13.6
2022-07-28T03:22:44.581Z,13.5
2022-07-28T03:23:54.698Z,13.5
2022-07-28T03:25:04.816Z,13.4
2022-07-28T03:26:14.935Z,14.1
2022-07-28T03:27:25.037Z,13.7
2022-07-28T03:28:35.158Z,13.9
2022-07-28T03:29:45.282Z,13.5
2022-07-28T03:30:55.000Z,14
2022-07-28T03:32:05.513Z,13.6
2022-07-28T03:33:15.636Z,13.9
2022-07-28T03:34:25.744Z,14.1
2022-07-28T03:35:35.863Z,14.2
2022-07-28T03:36:45.989Z,14.1
2022-07-28T03:37:55.127Z,14.1
2022-07-28T03:39:05.229Z,14.1
2022-07-28T03:40:15.355Z,14
2022-07-28T03:41:25.480Z,14.3
2022-07-28T03:42:35.590Z,13.8
2022-07-28T03:43:45.712Z,13.5
2022-07-28T03:44:55.829Z,13.3
2022-07-28T03:46:05.934Z,14.1
2022-07-28T03:47:16.063Z,13.9
2022-07-28T03:48:26.176Z,13.3
2022-07-28T03:49:36.304Z,13.4
2022-07-28T03:50:46.423Z,13.5
2022-07-28T03:51:56.532Z,13.5
2022-07-28T03:53:05.666Z,13.5
2022-07-28T03:54:15.787Z,13.5
2022-07-28T03:55:25.905Z,13.6
2022-07-28T03:56:36.027Z,14.1
2022-07-28T03:57:46.139Z,14
2022-07-28T03:58:56.262Z,14.1
2022-07-28T04:00:06.364Z,14.1
2022-07-28T04:01:16.488Z,14
2022-07-28T04:02:26.610Z,13.4
2022-07-28T04:03:36.720Z,14.1
2022-07-28T04:04:46.847Z,13.3
2022-07-28T04:05:56.967Z,14.2
2022-07-28T04:07:07.071Z,13.5
2022-07-28T04:08:16.209Z,14.1
2022-07-28T04:09:26.331Z,14
2022-07-28T04:10:36.448Z,13.6
2022-07-28T04:11:46.565Z,13.5
2022-07-28T04:12:56.684Z,14.2
2022-07-28T04:14:06.808Z,13.9
2022-07-28T04:15:16.919Z,13.8
2022-07-28T04:16:27.025Z,13.9
2022-07-28T04:17:37.157Z,13.5
2022-07-28T04:18:47.274Z,14.3
2022-07-28T04:19:57.381Z,14
2022-07-28T04:21:07.506Z,13.4
2022-07-28T04:23:27.736Z,13.4
2022-07-28T04:24:36.864Z,13.5
2022-07-28T04:25:46.996Z,13.6
2022-07-28T04:26:57.106Z,14.1
2022-07-28T04:28:07.225Z,13.5
2022-07-28T04:29:17.337Z,14.1
2022-07-28T04:30:27.458Z,14.2
2022-07-28T04:31:37.569Z,13.5
2022-07-28T04:32:47.695Z,14.1
2022-07-28T04:33:57.808Z,13.8
2022-07-28T04:35:07.936Z,13.3
2022-07-28T04:36:18.056Z,14.1
2022-07-28T04:37:28.174Z,14.1
2022-07-28T04:38:38.276Z,13.7
2022-07-28T04:39:47.411Z,13.9
2022-07-28T04:40:57.525Z,14.1
2022-07-28T04:42:07.661Z,13.4
2022-07-28T04:43:17.773Z,14.1
2022-07-28T04:44:27.879Z,13.6
2022-07-28T04:45:38.004Z,14.1
2022-07-28T04:46:48.120Z,13.5
2022-07-28T04:49:08.360Z,13.9
2022-07-28T04:50:18.478Z,13.5
2022-07-28T04:51:28.583Z,14.4
2022-07-28T04:52:38.707Z,13.3
2022-07-28T04:53:48.833Z,14.1
2022-07-28T04:54:57.956Z,14
2022-07-28T04:56:08.076Z,13.5
2022-07-28T04:57:18.193Z,14
2022-07-28T04:58:28.306Z,13.5
2022-07-28T04:59:38.427Z,13.5
2022-07-28T05:00:48.558Z,14.2
2022-07-28T05:01:58.657Z,13.6
2022-07-28T05:03:08.778Z,13.5
2022-07-28T05:04:18.896Z,13.8
2022-07-28T05:05:29.010Z,14.1
2022-07-28T05:06:39.146Z,14
2022-07-28T05:07:49.246Z,13.5
2022-07-28T05:08:59.368Z,14.3
2022-07-28T05:10:08.507Z,13.7
2022-07-28T05:11:18.630Z,13.8
2022-07-28T05:12:28.733Z,14.1
2022-07-28T05:13:38.865Z,14
2022-07-28T05:14:48.969Z,14.1
2022-07-28T05:15:59.087Z,14.1
2022-07-28T05:17:09.211Z,14.1
2022-07-28T05:18:19.325Z,13.5
2022-07-28T05:19:29.453Z,14
2022-07-28T05:20:39.562Z,13.9
2022-07-28T05:21:49.681Z,13.5
2022-07-28T05:22:59.795Z,13.6
2022-07-28T05:24:09.920Z,14.1
2022-07-28T05:25:19.045Z,14.2
2022-07-28T05:26:29.173Z,13.8
2022-07-28T05:27:39.289Z,14.1
2022-07-28T05:28:49.410Z,13.8
2022-07-28T05:29:59.532Z,14.1
2022-07-28T05:31:09.637Z,13.7
2022-07-28T05:32:19.760Z,14.1
2022-07-28T05:33:29.883Z,14.4
2022-07-28T05:34:39.988Z,13.8
2022-07-28T05:35:50.110Z,13.7
2022-07-28T05:37:00.231Z,13.3
2022-07-28T05:38:10.350Z,13.5
2022-07-28T05:39:20.471Z,14.3
2022-07-28T05:40:29.854Z,14.3
2022-07-28T05:41:39.708Z,13.6
2022-07-28T05:42:49.834Z,14.1
2022-07-28T05:43:59.954Z,14.1
2022-07-28T05:45:10.067Z,14.2
2022-07-28T05:46:20.191Z,13.6
2022-07-28T05:47:30.295Z,13.3
2022-07-28T05:48:40.423Z,14
2022-07-28T05:49:50.546Z,14
2022-07-28T05:51:00.649Z,14.1
2022-07-28T05:52:10.783Z,14.3
2022-07-28T05:54:30.999Z,14.2
2022-07-28T05:55:40.133Z,13.5
2022-07-28T05:56:50.257Z,14.1
2022-07-28T05:58:00.372Z,13.9
2022-07-28T05:59:10.499Z,14.4
2022-07-28T06:00:20.605Z,13.6
2022-07-28T06:01:30.737Z,13.6
2022-07-28T06:02:40.844Z,14.2
2022-07-28T06:03:50.973Z,14.1
2022-07-28T06:06:11.209Z,13.6
2022-07-28T06:07:21.316Z,13.6
2022-07-28T06:08:31.440Z,14.2
2022-07-28T06:09:41.550Z,14.1
2022-07-28T06:10:50.690Z,14.3
2022-07-28T06:12:00.808Z,14.2
2022-07-28T06:13:10.920Z,13.5
2022-07-28T06:14:21.044Z,14
2022-07-28T06:15:31.155Z,14.3
2022-07-28T06:16:41.284Z,13.3
2022-07-28T06:17:51.393Z,13.6
2022-07-28T06:19:01.515Z,14.2
2022-07-28T06:20:11.625Z,14
2022-07-28T06:21:21.744Z,14
2022-07-28T06:22:31.852Z,14.1
2022-07-28T06:23:41.974Z,14.2
2022-07-28T06:24:52.101Z,13.3
2022-07-28T06:26:01.489Z,13.5
2022-07-28T06:27:11.352Z,14.1
2022-07-28T06:28:21.467Z,13.5
2022-07-28T06:29:31.589Z,13.9
2022-07-28T06:30:41.702Z,14.2
2022-07-28T06:31:51.829Z,14.1
2022-07-28T06:33:01.942Z,14.2
2022-07-28T06:34:12.050Z,13.8
2022-07-28T06:35:22.178Z,14
2022-07-28T06:36:32.298Z,13.3
2022-07-28T06:37:41.435Z,13.8
2022-07-28T06:38:51.551Z,14.2
2022-07-28T06:40:01.671Z,13.9
2022-07-28T06:41:11.780Z,13.5
2022-07-28T06:43:32.013Z,13.3
2022-07-28T06:44:42.141Z,13.5
2022-07-28T06:45:52.247Z,14.1
2022-07-28T06:47:02.372Z,13.5
2022-07-28T06:48:12.493Z,13.3
2022-07-28T06:49:22.600Z,13.3
2022-07-28T06:50:32.730Z,13.4
2022-07-28T06:51:42.837Z,13.7
2022-07-28T06:52:51.975Z,13.7
2022-07-28T06:54:02.099Z,14.1
2022-07-28T06:55:12.204Z,13.9
2022-07-28T06:56:22.334Z,14.1
2022-07-28T06:57:32.440Z,13.7
2022-07-28T06:58:42.566Z,14.1
2022-07-28T06:59:52.671Z,13.3
2022-07-28T07:01:02.791Z,13.9
2022-07-28T07:02:12.000Z,13.5
2022-07-28T07:03:23.024Z,14
2022-07-28T07:04:33.406Z,14.2
2022-07-28T07:05:43.269Z,14.1
2022-07-28T07:06:53.395Z,13.4
2022-07-28T07:08:02.522Z,14.1
2022-07-28T07:09:12.629Z,14.2
2022-07-28T07:10:22.756Z,13.9
2022-07-28T07:11:32.868Z,14.1
2022-07-28T07:12:42.994Z,14.1
2022-07-28T07:13:53.101Z,13.2
2022-07-28T07:15:03.218Z,13.5
2022-07-28T07:16:13.338Z,13.3
2022-07-28T07:17:23.458Z,13.3
2022-07-28T07:18:33.577Z,13.3
2022-07-28T07:19:43.703Z,13.5
2022-07-28T07:20:53.805Z,13.5
2022-07-28T07:22:03.929Z,13.1
2022-07-28T07:23:13.058Z,13.5
2022-07-28T07:24:23.182Z,13.8
2022-07-28T07:25:33.299Z,13.3
2022-07-28T07:26:43.427Z,14
2022-07-28T07:27:53.526Z,14.1
2022-07-28T07:29:03.648Z,13.7
2022-07-28T07:30:13.774Z,13.8
2022-07-28T07:31:23.886Z,13.3
2022-07-28T07:32:34.004Z,13.4
2022-07-28T07:33:44.122Z,14.1
2022-07-28T07:34:54.240Z,13.2
2022-07-28T07:36:04.362Z,14
2022-07-28T07:37:14.476Z,13.4
2022-07-28T07:38:23.610Z,14.1
2022-07-28T07:39:33.722Z,13.7
2022-07-28T07:40:43.850Z,13.9
2022-07-28T07:41:53.976Z,13.3
2022-07-28T07:43:04.081Z,13.5
2022-07-28T07:44:14.202Z,13.8
2022-07-28T07:45:24.310Z,13.7
2022-07-28T07:46:34.436Z,13.2
2022-07-28T07:47:44.560Z,13.2
2022-07-28T07:48:54.677Z,13.3
2022-07-28T07:50:04.783Z,13.9
2022-07-28T07:51:14.898Z,14
2022-07-28T07:52:25.025Z,13.9
2022-07-28T07:53:34.163Z,14.1
2022-07-28T07:54:44.269Z,13.5
2022-07-28T07:55:54.391Z,14
2022-07-28T07:57:04.510Z,13.8
2022-07-28T07:58:14.636Z,13.5
2022-07-28T07:59:24.739Z,13.9
2022-07-28T08:00:34.870Z,14
2022-07-28T08:01:44.980Z,13.4
2022-07-28T08:02:55.105Z,13.5
2022-07-28T08:04:05.211Z,13.5
2022-07-28T08:05:15.334Z,13.3
2022-07-28T08:06:25.457Z,14.1
2022-07-28T08:07:35.562Z,14
2022-07-28T08:08:44.713Z,13.2
2022-07-28T08:09:54.818Z,13.4
2022-07-28T08:11:04.942Z,13.9
2022-07-28T08:12:15.070Z,13.5
2022-07-28T08:13:25.180Z,14.1
2022-07-28T08:14:35.297Z,13.1
2022-07-28T08:15:45.418Z,13.3
2022-07-28T08:16:55.533Z,13.9
2022-07-28T08:18:05.642Z,14
2022-07-28T08:19:15.761Z,13.3
2022-07-28T08:20:25.882Z,14.1
2022-07-28T08:21:36.012Z,14
2022-07-28T08:22:46.130Z,14.1
2022-07-28T08:23:55.250Z,14.1
2022-07-28T08:25:05.376Z,13.5
2022-07-28T08:26:15.482Z,13.8
2022-07-28T08:27:25.598Z,13.5
2022-07-28T08:28:35.722Z,13.2
2022-07-28T08:29:45.842Z,13.7
2022-07-28T08:30:55.965Z,13.1
2022-07-28T08:32:06.089Z,13.3
2022-07-28T08:33:16.193Z,13.7
2022-07-28T08:34:26.313Z,13.5
2022-07-28T08:35:36.437Z,14.1
2022-07-28T08:36:46.543Z,13.3
2022-07-28T08:37:56.924Z,13.6
2022-07-28T08:39:05.799Z,13.9
2022-07-28T08:40:15.927Z,13.5
2022-07-28T08:41:26.036Z,13.5
2022-07-28T08:42:36.162Z,13.3
2022-07-28T08:43:46.281Z,14.1
2022-07-28T08:44:56.385Z,13.7
2022-07-28T08:46:06.512Z,13.3
2022-07-28T08:47:16.638Z,13.2
2022-07-28T08:48:26.745Z,13.1
2022-07-28T08:49:36.862Z,14
2022-07-28T08:50:46.972Z,13.3
2022-07-28T08:51:57.100Z,13.7
2022-07-28T08:53:07.207Z,13.6
2022-07-28T08:54:16.353Z,13.1
2022-07-28T08:55:26.461Z,13.5
2022-07-28T08:56:36.587Z,13.6
2022-07-28T08:57:46.698Z,13.2
2022-07-28T08:58:56.825Z,13.3
2022-07-28T09:00:06.947Z,13.5
2022-07-28T09:01:17.048Z,13.5
2022-07-28T09:02:27.172Z,14
2022-07-28T09:03:37.284Z,13.7
2022-07-28T09:04:47.411Z,13.5
2022-07-28T09:05:57.806Z,13.1
2022-07-28T09:07:07.634Z,14.1
2022-07-28T09:08:17.763Z,13.5
2022-07-28T09:09:26.895Z,13.3
2022-07-28T09:10:37.016Z,13.3
2022-07-28T09:11:47.122Z,13.5
2022-07-28T09:12:57.240Z,13.1
2022-07-28T09:14:07.356Z,13.1
2022-07-28T09:15:17.483Z,14
2022-07-28T09:16:27.598Z,13.2
2022-07-28T09:17:37.716Z,13.5
2022-07-28T09:18:47.837Z,14
2022-07-28T09:19:57.958Z,13.3
2022-07-28T09:21:08.063Z,13.1
2022-07-28T09:22:18.189Z,13.1
2022-07-28T09:23:28.296Z,13.3
2022-07-28T09:24:37.431Z,13.7
2022-07-28T09:25:47.553Z,14.1
2022-07-28T09:26:57.681Z,13.6
2022-07-28T09:28:07.786Z,13.6
2022-07-28T09:29:17.910Z,13.3
2022-07-28T09:30:28.019Z,13.5
2022-07-28T09:31:38.144Z,13.3
2022-07-28T09:32:48.248Z,13.3
2022-07-28T09:33:58.384Z,13.3
2022-07-28T09:35:08.485Z,14.1
2022-07-28T09:36:18.872Z,13.5
2022-07-28T09:37:28.725Z,13.7
2022-07-28T09:38:38.846Z,13.3
2022-07-28T09:39:47.985Z,13.5
2022-07-28T09:40:58.089Z,13.4
2022-07-28T09:42:08.220Z,13.6
2022-07-28T09:43:18.333Z,13.5
2022-07-28T09:44:28.457Z,14
2022-07-28T09:45:38.569Z,13.3
2022-07-28T09:46:48.693Z,13.6
2022-07-28T09:47:58.797Z,14.1
2022-07-28T09:49:08.919Z,13.3
2022-07-28T09:50:19.041Z,13.8
2022-07-28T09:51:29.162Z,14
2022-07-28T09:52:39.265Z,13.5
2022-07-28T09:53:49.383Z,13.5
2022-07-28T09:54:58.523Z,13.4
2022-07-28T09:56:08.644Z,13.5
2022-07-28T09:57:18.760Z,13.6
2022-07-28T09:58:28.865Z,13.3
2022-07-28T09:59:38.987Z,13.6
2022-07-28T10:00:49.105Z,13.9
2022-07-28T10:01:59.229Z,13.2
2022-07-28T10:03:09.346Z,13.5
2022-07-28T10:04:19.453Z,13.9
2022-07-28T10:06:39.703Z,13.5
2022-07-28T10:07:49.806Z,14.1
2022-07-28T10:08:59.932Z,13.5
2022-07-28T10:10:09.071Z,13.3
2022-07-28T10:11:19.174Z,13.7
2022-07-28T10:12:29.303Z,13.4
2022-07-28T10:13:39.418Z,13.1
2022-07-28T10:14:49.535Z,13.5
2022-07-28T10:15:59.641Z,13.5
2022-07-28T10:18:19.889Z,13.9
2022-07-28T10:19:29.994Z,13.2
2022-07-28T10:20:40.122Z,13.9
2022-07-28T10:21:50.229Z,14
2022-07-28T10:23:00.359Z,13.3
2022-07-28T10:24:10.465Z,13.6
2022-07-28T10:25:19.852Z,14
2022-07-28T10:27:39.833Z,13.4
2022-07-28T10:28:48.992Z,13.1
2022-07-28T10:29:58.126Z,13.2
2022-07-28T10:31:08.233Z,13.9
2022-07-28T10:32:17.370Z,13.6
2022-07-28T10:33:27.489Z,13.3
2022-07-28T10:34:37.860Z,13.5
2022-07-28T10:35:47.720Z,13.7
2022-07-28T10:36:57.849Z,13.5
2022-07-28T10:38:07.957Z,13.3
2022-07-28T10:39:18.087Z,13.3
2022-07-28T10:40:28.192Z,13.3
2022-07-28T10:41:37.351Z,13.2
2022-07-28T10:42:46.468Z,13.5
2022-07-28T10:43:56.598Z,13.1
2022-07-28T10:45:06.705Z,13.6
2022-07-28T10:46:16.832Z,13.2
2022-07-28T10:47:26.939Z,13.3
2022-07-28T10:48:37.060Z,13.6
2022-07-28T10:49:47.187Z,13.3
2022-07-28T10:50:57.301Z,13.3
2022-07-28T10:52:07.426Z,13.5
2022-07-28T10:53:17.528Z,13.4
2022-07-28T10:54:27.653Z,13.5
2022-07-28T10:55:37.766Z,13.3
2022-07-28T10:56:47.893Z,14.1
2022-07-28T10:57:57.012Z,13.3
2022-07-28T10:59:07.140Z,13.3
2022-07-28T11:00:17.265Z,13.7
2022-07-28T11:01:27.370Z,13.2
2022-07-28T11:02:37.500Z,13.5
2022-07-28T11:03:47.605Z,13.6
2022-07-28T11:04:57.733Z,13.3
2022-07-28T11:06:07.842Z,14
2022-07-28T11:07:17.969Z,14
2022-07-28T11:08:28.078Z,13.3
2022-07-28T11:09:38.441Z,13.2
2022-07-28T11:10:48.312Z,13.1
2022-07-28T11:11:58.431Z,13.5
2022-07-28T11:13:07.570Z,13.9
2022-07-28T11:14:17.673Z,14
2022-07-28T11:15:27.798Z,13.5
2022-07-28T11:16:37.921Z,13.8
2022-07-28T11:17:48.028Z,13.6
2022-07-28T11:18:58.149Z,13.3
2022-07-28T11:20:08.263Z,14
2022-07-28T11:21:18.387Z,13.3
2022-07-28T11:23:38.625Z,13.5
2022-07-28T11:24:48.735Z,13.2
2022-07-28T11:25:58.857Z,13.4
2022-07-28T11:27:08.980Z,13.8
2022-07-28T11:28:18.096Z,13.8
2022-07-28T11:29:28.220Z,13.5
2022-07-28T11:30:38.347Z,13.5
2022-07-28T11:31:48.456Z,13.7
2022-07-28T11:32:58.580Z,12.9
2022-07-28T11:34:08.684Z,13.4
2022-07-28T11:35:18.814Z,13.5
2022-07-28T11:36:28.932Z,13.5
2022-07-28T11:37:39.039Z,12.9
2022-07-28T11:38:49.169Z,12.7
2022-07-28T11:39:59.271Z,13.3
2022-07-28T11:41:09.392Z,12.9
2022-07-28T11:42:19.512Z,13.3
2022-07-28T11:43:28.652Z,13.1
2022-07-28T11:44:38.761Z,12.9
2022-07-28T11:45:48.885Z,13.7
2022-07-28T11:46:58.991Z,13.5
2022-07-28T11:48:09.121Z,13.2
2022-07-28T11:49:19.241Z,13.4
2022-07-28T11:50:29.346Z,13.3
2022-07-28T11:51:39.479Z,12.8
2022-07-28T11:52:49.589Z,13.7
2022-07-28T11:53:59.711Z,13.2
2022-07-28T11:55:09.815Z,13.7
2022-07-28T11:56:19.935Z,13.3
2022-07-28T11:58:40.168Z,13.8
2022-07-28T11:59:49.319Z,13.7
2022-07-28T12:00:59.425Z,13.7
2022-07-28T12:02:09.549Z,13.7
2022-07-28T12:03:19.657Z,13.3
2022-07-28T12:04:29.785Z,13.2
2022-07-28T12:05:39.892Z,13.2
2022-07-28T12:06:50.018Z,13.7
2022-07-28T12:08:00.127Z,13.5
2022-07-28T12:09:10.251Z,13.6
2022-07-28T12:10:20.378Z,13.3
2022-07-28T12:11:30.495Z,13.5
2022-07-28T12:12:40.607Z,13.3
2022-07-28T12:13:50.716Z,13.1
2022-07-28T12:14:59.850Z,13.3
2022-07-28T12:16:09.963Z,13.3
2022-07-28T12:17:20.080Z,13.5
2022-07-28T12:19:40.315Z,13.5
2022-07-28T12:20:50.436Z,13.5
2022-07-28T12:22:00.563Z,13.5
2022-07-28T12:23:10.679Z,12.7
2022-07-28T12:24:20.789Z,13.3
2022-07-28T12:25:30.908Z,13.8
2022-07-28T12:26:41.031Z,12.8
2022-07-28T12:27:51.139Z,13.5
2022-07-28T12:29:01.265Z,13.7
2022-07-28T12:30:10.404Z,13.4
2022-07-28T12:31:20.511Z,13.3
2022-07-28T12:32:30.629Z,13.4
2022-07-28T12:33:40.749Z,12.6
2022-07-28T12:34:50.860Z,13.1
2022-07-28T12:36:00.980Z,13.2
2022-07-28T12:37:11.106Z,12.9
2022-07-28T12:38:21.213Z,13.1
2022-07-28T12:39:31.329Z,13.6
2022-07-28T12:40:41.446Z,13.3
2022-07-28T12:41:51.579Z,13.2
2022-07-28T12:43:01.679Z,12.7
2022-07-28T12:44:11.805Z,13.2
2022-07-28T12:45:20.935Z,13.5
2022-07-28T12:46:31.062Z,13.3
2022-07-28T12:47:41.169Z,13.4
2022-07-28T12:48:51.284Z,12.7
2022-07-28T12:50:01.400Z,13.3
2022-07-28T12:51:11.528Z,13.5
2022-07-28T12:52:21.635Z,12.8
2022-07-28T12:53:31.762Z,12.9
2022-07-28T12:54:41.886Z,12.9
2022-07-28T12:55:51.997Z,13.5
2022-07-28T12:57:02.107Z,13.1
2022-07-28T12:58:12.232Z,12.7
2022-07-28T12:59:22.342Z,13.4
2022-07-28T13:00:31.489Z,12.7
2022-07-28T13:01:41.596Z,13.1
2022-07-28T13:02:51.722Z,12.9
2022-07-28T13:04:01.832Z,13.2
2022-07-28T13:05:11.957Z,13.1
2022-07-28T13:06:22.074Z,13.3
2022-07-28T13:07:32.178Z,12.9
2022-07-28T13:08:42.305Z,12.9
2022-07-28T13:09:52.416Z,13.6
2022-07-28T13:11:02.539Z,13.3
2022-07-28T13:12:12.664Z,12.9
2022-07-28T13:13:22.775Z,12.7
2022-07-28T13:14:32.882Z,13.3
2022-07-28T13:15:42.020Z,12.9
2022-07-28T13:16:52.150Z,13.4
2022-07-28T13:18:02.253Z,12.7
2022-07-28T13:19:12.382Z,12.9
2022-07-28T13:20:22.486Z,13.3
2022-07-28T13:22:42.720Z,13.3
2022-07-28T13:23:52.846Z,13.3
2022-07-28T13:25:02.956Z,13.5
2022-07-28T13:26:13.086Z,13.3
2022-07-28T13:27:23.195Z,13.4
2022-07-28T13:29:43.427Z,12.6
2022-07-28T13:30:52.564Z,12.9
2022-07-28T13:32:02.694Z,12.5
2022-07-28T13:33:12.806Z,13.3
2022-07-28T13:34:22.913Z,12.7
2022-07-28T13:35:33.036Z,13.4
2022-07-28T13:36:43.152Z,12.7
2022-07-28T13:37:53.279Z,13.3
2022-07-28T13:39:03.385Z,13.5
2022-07-28T13:40:13.515Z,13.5
2022-07-28T13:41:23.619Z,13.4
2022-07-28T13:42:33.741Z,12.7
2022-07-28T13:43:43.856Z,12.6
2022-07-28T13:44:53.984Z,13.3
2022-07-28T13:46:03.116Z,12.9
2022-07-28T13:47:13.241Z,13.5
2022-07-28T13:48:23.358Z,13.3
2022-07-28T13:49:33.462Z,13.2
2022-07-28T13:50:43.589Z,12.7
2022-07-28T13:51:53.714Z,12.9
2022-07-28T13:53:03.821Z,12.8
2022-07-28T13:54:13.942Z,13.5
2022-07-28T13:55:24.069Z,12.8
2022-07-28T13:57:44.303Z,12.9
2022-07-28T13:58:54.412Z,13.3
2022-07-28T14:00:04.535Z,13.3
2022-07-28T14:01:13.657Z,13.2
2022-07-28T14:02:23.785Z,13.2
2022-07-28T14:03:33.905Z,13.2
2022-07-28T14:04:44.266Z,13.3
2022-07-28T14:05:54.140Z,13.2
2022-07-28T14:07:04.247Z,13.5
2022-07-28T14:08:14.373Z,12.7
2022-07-28T14:09:24.501Z,13.3
2022-07-28T14:10:34.601Z,13.5
2022-07-28T14:11:44.736Z,12.7
2022-07-28T14:12:54.843Z,12.5
2022-07-28T14:14:04.973Z,13.3
2022-07-28T14:15:15.082Z,13.1
2022-07-28T14:16:24.222Z,13.3
2022-07-28T14:18:44.699Z,12.7
2022-07-28T14:19:54.571Z,13.3
2022-07-28T14:21:04.679Z,12.9
2022-07-28T14:22:14.811Z,13.3
2022-07-28T14:23:24.927Z,12.9
2022-07-28T14:24:35.034Z,12.7
2022-07-28T14:25:45.162Z,13.2
2022-07-28T14:26:54.300Z,13.5
2022-07-28T14:28:04.422Z,13.4
2022-07-28T14:29:14.531Z,12.7
2022-07-28T14:30:24.652Z,12.5
2022-07-28T14:31:34.776Z,13.3
2022-07-28T14:32:44.883Z,12.9
2022-07-28T14:33:55.010Z,12.7
2022-07-28T14:35:05.117Z,12.6
2022-07-28T14:36:15.244Z,12.8
2022-07-28T14:37:25.352Z,13.5
2022-07-28T14:38:35.477Z,13.2
2022-07-28T14:39:45.581Z,12.6
2022-07-28T14:40:55.706Z,13.4
2022-07-28T14:42:04.843Z,12.7
2022-07-28T14:43:14.950Z,12.9
2022-07-28T14:44:25.078Z,13.1
2022-07-28T14:45:35.201Z,12.6
2022-07-28T14:46:45.308Z,12.7
2022-07-28T14:47:55.432Z,12.7
2022-07-28T14:49:05.541Z,12.6
2022-07-28T14:50:15.664Z,13.5
2022-07-28T14:51:25.772Z,12.9
2022-07-28T14:52:35.888Z,12.6
2022-07-28T14:53:46.017Z,12.8
2022-07-28T14:54:56.135Z,12.6
2022-07-28T14:56:06.246Z,13.3
2022-07-28T14:57:15.385Z,13.4
2022-07-28T14:58:25.500Z,12.6
2022-07-28T15:00:45.726Z,13.1
2022-07-28T15:01:55.849Z,12.6
2022-07-28T15:03:05.978Z,13.3
2022-07-28T15:04:16.078Z,12.7
2022-07-28T15:05:26.206Z,12.6
2022-07-28T15:06:36.322Z,12.9
2022-07-28T15:07:46.444Z,12.9
2022-07-28T15:08:56.567Z,13.3
2022-07-28T15:10:06.675Z,12.5
2022-07-28T15:11:16.782Z,13.3
2022-07-28T15:12:25.922Z,12.7
2022-07-28T15:14:46.401Z,13.5
2022-07-28T15:15:56.119Z,12.7
2022-07-28T15:17:06.400Z,13.1
2022-07-28T15:18:16.522Z,13.1
2022-07-28T15:19:26.634Z,13.4
2022-07-28T15:20:36.756Z,12.7
2022-07-28T15:21:47.113Z,13.1
2022-07-28T15:22:56.979Z,12.8
2022-07-28T15:24:07.104Z,13.3
2022-07-28T15:25:17.213Z,12.7
2022-07-28T15:26:27.343Z,13.2
2022-07-28T15:27:36.472Z,13.3
2022-07-28T15:28:46.426Z,12.8
2022-07-28T15:29:56.708Z,12.5
2022-07-28T15:31:06.814Z,12.8
2022-07-28T15:32:16.940Z,12.7
2022-07-28T15:33:27.061Z,13.3
2022-07-28T15:34:37.172Z,13.3
2022-07-28T15:35:47.295Z,12.7
2022-07-28T15:36:57.407Z,13.3
2022-07-28T15:38:07.534Z,12.5
2022-07-28T15:39:17.648Z,12.7
2022-07-28T15:40:27.769Z,12.7
2022-07-28T15:41:37.874Z,12.9
2022-07-28T15:42:47.006Z,12.7
2022-07-28T15:43:56.964Z,13.3
2022-07-28T15:45:07.252Z,12.7
2022-07-28T15:46:17.360Z,13.5
2022-07-28T15:47:27.489Z,12.5
2022-07-28T15:49:47.717Z,12.7
2022-07-28T15:50:57.834Z,12.7
2022-07-28T15:52:07.950Z,13.1
2022-07-28T15:53:18.068Z,12.7
2022-07-28T15:54:28.198Z,13.1
2022-07-28T15:55:38.306Z,12.7
2022-07-28T15:56:48.428Z,12.6
2022-07-28T15:57:57.394Z,13.2
2022-07-28T15:59:07.676Z,12.7
2022-07-28T16:00:17.800Z,12.3
2022-07-28T16:01:27.917Z,13.3
2022-07-28T16:02:38.023Z,12.7
2022-07-28T16:03:48.149Z,13.2
2022-07-28T16:04:58.261Z,13.1
2022-07-28T16:06:08.380Z,13.2
2022-07-28T16:07:18.502Z,12.6
2022-07-28T16:08:28.612Z,12.6
2022-07-28T16:09:38.724Z,12.7
2022-07-28T16:10:48.848Z,13.3
2022-07-28T16:11:58.973Z,12.9
2022-07-28T16:13:08.090Z,13.1